Time;durP1;ratioP1;P1;durP2;ratioP2;P2;SDS_P1;SDS_P2;PMS_P1;PMS_P2;Temp;Humidity;BMP_temperature;BMP_pressure;BME280_temperature;BME280_humidity;BME280_pressure;Samples;Min_cycle;Max_cycle;Signal;HPM_P1;HPM_P2
2023/12/26 00:01:45;;;;;;;3.40;1.00;;;9.40;99.90;;;;;;5007012;28;20096;-77
2023/12/26 00:04:12;;;;;;;4.20;1.20;;;9.40;99.90;;;;;;5010553;28;20049;-78
2023/12/26 00:06:40;;;;;;;4.82;1.05;;;9.40;99.90;;;;;;4991268;28;20475;-76
2023/12/26 00:09:05;;;;;;;2.30;1.10;;;9.40;99.90;;;;;;5004846;28;20403;-77
2023/12/26 00:11:31;;;;;;;4.15;1.20;;;9.40;99.90;;;;;;5005217;28;20052;-78
2023/12/26 00:13:56;;;;;;;2.88;1.10;;;9.40;99.90;;;;;;5007552;28;20053;-77
2023/12/26 00:16:23;;;;;;;2.83;1.15;;;9.40;99.90;;;;;;5010932;28;20097;-77
2023/12/26 00:18:49;;;;;;;4.78;0.98;;;9.40;99.90;;;;;;5008048;28;20076;-76
2023/12/26 00:21:15;;;;;;;1.80;0.90;;;9.40;99.90;;;;;;5012167;28;20054;-78
2023/12/26 00:23:40;;;;;;;4.53;1.00;;;9.40;99.90;;;;;;5010913;28;20229;-79
2023/12/26 00:26:06;;;;;;;4.15;1.20;;;9.40;99.90;;;;;;4994647;28;20425;-76
2023/12/26 00:28:31;;;;;;;2.40;1.10;;;9.40;99.90;;;;;;5010464;28;20049;-77
2023/12/26 00:30:57;;;;;;;2.35;1.40;;;9.40;99.90;;;;;;5009817;28;20095;-76
2023/12/26 00:33:23;;;;;;;5.15;1.70;;;9.40;99.90;;;;;;5007210;28;20140;-77
2023/12/26 00:35:48;;;;;;;3.58;1.58;;;9.40;99.90;;;;;;5003578;28;20060;-76
2023/12/26 00:38:14;;;;;;;3.13;1.40;;;9.40;99.90;;;;;;5010215;28;20514;-78
2023/12/26 00:40:41;;;;;;;4.97;1.50;;;9.50;99.90;;;;;;5006456;28;20129;-78
2023/12/26 00:43:07;;;;;;;2.88;1.50;;;9.40;99.90;;;;;;5007598;28;20042;-77
2023/12/26 00:45:33;;;;;;;3.97;1.50;;;9.40;99.90;;;;;;5011322;28;20046;-77
2023/12/26 00:47:59;;;;;;;3.38;1.58;;;9.50;99.90;;;;;;5008303;28;20046;-78
2023/12/26 00:50:24;;;;;;;3.58;1.60;;;9.50;99.90;;;;;;5008334;28;20474;-76
2023/12/26 00:52:50;;;;;;;3.33;1.70;;;9.40;99.90;;;;;;5018546;28;20042;-76
2023/12/26 00:55:16;;;;;;;2.90;1.33;;;9.50;99.90;;;;;;5014674;28;20095;-76
2023/12/26 00:57:41;;;;;;;5.97;1.73;;;9.50;99.90;;;;;;5008239;28;20046;-77
2023/12/26 01:00:08;;;;;;;6.25;1.70;;;9.50;99.90;;;;;;4998501;28;20470;-77
2023/12/26 01:02:33;;;;;;;5.03;1.45;;;9.50;99.90;;;;;;5006005;28;20048;-77
2023/12/26 01:04:59;;;;;;;5.18;1.60;;;9.50;99.90;;;;;;4999226;28;20482;-77
2023/12/26 01:07:25;;;;;;;2.33;1.10;;;9.50;99.90;;;;;;5004639;28;20046;-76
2023/12/26 01:09:51;;;;;;;4.25;1.40;;;9.70;99.90;;;;;;5011142;28;20359;-77
2023/12/26 01:12:17;;;;;;;1.75;1.00;;;9.50;99.90;;;;;;5009590;28;20050;-78
2023/12/26 01:14:43;;;;;;;3.70;1.20;;;9.50;99.90;;;;;;5003318;28;20045;-77
2023/12/26 01:17:09;;;;;;;3.80;0.80;;;9.50;99.90;;;;;;5003197;28;20406;-78
2023/12/26 01:19:35;;;;;;;4.53;0.77;;;9.50;99.90;;;;;;5007503;28;20038;-77
2023/12/26 01:22:00;;;;;;;2.58;0.80;;;9.50;99.90;;;;;;5010624;28;20133;-77
2023/12/26 01:24:26;;;;;;;3.35;0.93;;;9.50;99.90;;;;;;4995945;28;20779;-78
2023/12/26 01:26:51;;;;;;;4.93;0.88;;;9.50;99.90;;;;;;5007093;28;20092;-77
2023/12/26 01:29:17;;;;;;;2.63;0.88;;;9.50;99.90;;;;;;5004494;28;20044;-77
2023/12/26 01:31:43;;;;;;;2.58;0.70;;;9.50;99.90;;;;;;5005305;28;20113;-77
2023/12/26 01:34:08;;;;;;;5.13;0.98;;;9.50;99.90;;;;;;5011901;28;20053;-76
2023/12/26 01:36:34;;;;;;;3.50;0.70;;;9.50;99.90;;;;;;5004496;28;20049;-78
2023/12/26 01:39:00;;;;;;;4.68;0.82;;;9.50;99.90;;;;;;5006394;28;20081;-78
2023/12/26 01:41:26;;;;;;;5.40;1.27;;;9.50;99.90;;;;;;5009536;28;20050;-77
2023/12/26 01:43:51;;;;;;;3.30;0.70;;;9.70;99.90;;;;;;5009308;28;20050;-77
2023/12/26 01:46:19;;;;;;;4.32;0.75;;;9.50;99.90;;;;;;5009603;28;20037;-77
2023/12/26 01:48:47;;;;;;;4.95;0.90;;;9.50;99.90;;;;;;5009583;28;20046;-77
2023/12/26 01:51:15;;;;;;;4.30;0.90;;;9.50;99.90;;;;;;5009452;28;20042;-77
2023/12/26 01:53:41;;;;;;;5.15;1.05;;;9.50;99.90;;;;;;5011083;28;20402;-77
2023/12/26 01:56:10;;;;;;;6.43;1.10;;;9.50;99.90;;;;;;5009871;28;20557;-77
2023/12/26 01:58:37;;;;;;;11.27;1.30;;;9.50;99.90;;;;;;5006713;28;20050;-78
2023/12/26 02:01:04;;;;;;;7.78;1.42;;;9.50;99.90;;;;;;4992403;28;20121;-77
2023/12/26 02:03:30;;;;;;;7.13;1.45;;;9.50;99.90;;;;;;5011488;28;20100;-78
2023/12/26 02:05:57;;;;;;;12.20;1.30;;;9.60;99.90;;;;;;5002301;28;20046;-76
2023/12/26 02:08:23;;;;;;;10.27;1.55;;;9.50;99.90;;;;;;4994071;28;20042;-76
2023/12/26 02:10:49;;;;;;;12.70;1.50;;;9.60;99.90;;;;;;5000391;28;20038;-76
2023/12/26 02:13:15;;;;;;;9.77;1.20;;;9.50;99.90;;;;;;5006815;28;20097;-77
2023/12/26 02:15:41;;;;;;;7.47;1.40;;;9.50;99.90;;;;;;5000815;28;20061;-77
2023/12/26 02:18:07;;;;;;;11.82;1.02;;;9.50;99.90;;;;;;5005375;28;20050;-77
2023/12/26 02:20:33;;;;;;;9.73;1.48;;;9.50;99.90;;;;;;5013095;28;20038;-76
2023/12/26 02:22:59;;;;;;;6.57;1.23;;;9.50;99.90;;;;;;5011471;28;20060;-77
2023/12/26 02:25:24;;;;;;;8.85;1.33;;;9.50;99.90;;;;;;5008126;28;20042;-76
2023/12/26 02:27:51;;;;;;;12.05;1.60;;;9.50;99.90;;;;;;5002715;28;20519;-76
2023/12/26 02:30:17;;;;;;;9.57;1.90;;;9.50;99.90;;;;;;5012338;28;20442;-78
2023/12/26 02:32:46;;;;;;;12.77;1.52;;;9.50;99.90;;;;;;5012495;28;20061;-76
2023/12/26 02:35:12;;;;;;;6.68;1.10;;;9.50;99.90;;;;;;5009568;28;20061;-78
2023/12/26 02:37:38;;;;;;;12.88;1.67;;;9.50;99.90;;;;;;5005492;28;20413;-77
2023/12/26 02:40:05;;;;;;;11.15;1.40;;;9.50;99.90;;;;;;4997663;28;20371;-77
2023/12/26 02:42:30;;;;;;;10.77;1.42;;;9.50;99.90;;;;;;5012067;28;20045;-76
2023/12/26 02:44:57;;;;;;;11.15;1.35;;;9.50;99.90;;;;;;4996206;28;20046;-76
2023/12/26 02:47:23;;;;;;;14.70;1.77;;;9.50;99.90;;;;;;5005792;28;20437;-76
2023/12/26 02:49:49;;;;;;;6.53;1.30;;;9.50;99.90;;;;;;5010856;28;20041;-77
2023/12/26 02:52:15;;;;;;;14.25;1.73;;;9.50;99.90;;;;;;5008797;28;20050;-76
2023/12/26 02:54:40;;;;;;;13.95;1.75;;;9.40;99.90;;;;;;5012618;28;20049;-76
2023/12/26 02:57:06;;;;;;;7.93;1.35;;;9.50;99.90;;;;;;5014026;28;20048;-75
2023/12/26 02:59:32;;;;;;;8.55;1.30;;;9.40;99.90;;;;;;5010140;28;20116;-75
2023/12/26 03:01:58;;;;;;;16.30;1.85;;;9.40;99.90;;;;;;5009365;28;20095;-76
2023/12/26 03:04:24;;;;;;;9.20;1.58;;;9.40;99.90;;;;;;5008314;28;20054;-76
2023/12/26 03:06:49;;;;;;;8.38;1.83;;;9.40;99.90;;;;;;5012850;28;20114;-77
2023/12/26 03:09:15;;;;;;;10.77;1.65;;;9.40;99.90;;;;;;5007863;28;20046;-76
2023/12/26 03:11:41;;;;;;;9.27;1.50;;;9.40;99.90;;;;;;5005348;28;20076;-78
2023/12/26 03:14:07;;;;;;;9.73;1.48;;;9.30;99.90;;;;;;5011144;28;20069;-76
2023/12/26 03:16:33;;;;;;;12.32;1.52;;;9.40;99.90;;;;;;5012201;28;20041;-76
2023/12/26 03:18:58;;;;;;;11.68;1.58;;;9.20;99.90;;;;;;4996492;28;20421;-76
2023/12/26 03:21:24;;;;;;;10.75;1.65;;;9.20;99.90;;;;;;5013271;28;20049;-77
2023/12/26 03:23:51;;;;;;;8.80;1.38;;;9.20;99.90;;;;;;5011239;28;20049;-77
2023/12/26 03:26:16;;;;;;;9.40;1.33;;;9.20;99.90;;;;;;5011256;28;20125;-75
2023/12/26 03:28:42;;;;;;;14.95;1.77;;;9.30;99.90;;;;;;5011798;28;20121;-75
2023/12/26 03:31:07;;;;;;;9.65;1.75;;;9.20;99.90;;;;;;5011208;28;20099;-80
2023/12/26 03:33:33;;;;;;;14.07;1.77;;;9.20;99.90;;;;;;5007157;28;20189;-76
2023/12/26 03:36:01;;;;;;;6.97;0.98;;;9.20;99.90;;;;;;5003815;28;20054;-76
2023/12/26 03:38:27;;;;;;;11.60;2.15;;;9.20;99.90;;;;;;5011480;28;20386;-75
2023/12/26 03:40:52;;;;;;;14.95;1.67;;;9.20;99.90;;;;;;5011839;28;20046;-76
2023/12/26 03:43:18;;;;;;;10.77;1.50;;;9.20;99.90;;;;;;5011320;28;20042;-76
2023/12/26 03:45:47;;;;;;;7.60;1.23;;;9.20;99.90;;;;;;5012526;28;20115;-76
2023/12/26 03:48:13;;;;;;;9.25;1.50;;;9.20;99.90;;;;;;5012340;28;20478;-76
2023/12/26 03:50:39;;;;;;;11.40;1.38;;;9.10;99.90;;;;;;5008301;28;20070;-77
2023/12/26 03:53:05;;;;;;;6.78;1.58;;;9.30;99.90;;;;;;5007136;28;20144;-77
2023/12/26 03:55:30;;;;;;;9.93;1.90;;;9.00;99.90;;;;;;5010018;28;20143;-76
2023/12/26 03:57:56;;;;;;;8.65;2.00;;;9.00;99.90;;;;;;5007715;28;20041;-76
2023/12/26 04:00:22;;;;;;;11.48;1.60;;;9.10;99.90;;;;;;5010744;28;20052;-76
2023/12/26 04:02:47;;;;;;;14.60;2.20;;;8.90;99.90;;;;;;4994065;28;20054;-76
2023/12/26 04:05:13;;;;;;;10.73;1.75;;;8.90;99.90;;;;;;4993611;28;20073;-77
2023/12/26 04:07:39;;;;;;;9.07;1.77;;;8.90;99.90;;;;;;5009764;28;20537;-76
2023/12/26 04:10:05;;;;;;;11.05;1.85;;;8.80;99.90;;;;;;5011260;28;20037;-76
2023/12/26 04:12:32;;;;;;;13.48;1.60;;;8.80;99.90;;;;;;5010957;28;20046;-77
2023/12/26 04:14:58;;;;;;;9.48;1.92;;;8.80;99.90;;;;;;5010363;28;20454;-75
2023/12/26 04:17:24;;;;;;;15.05;2.75;;;8.70;99.90;;;;;;5012063;28;20038;-76
2023/12/26 04:19:51;;;;;;;9.82;1.52;;;8.70;99.90;;;;;;5004351;28;20088;-77
2023/12/26 04:22:18;;;;;;;13.23;1.90;;;8.70;99.90;;;;;;5009386;28;20072;-77
2023/12/26 04:24:44;;;;;;;13.25;1.95;;;8.70;99.90;;;;;;5011084;28;20092;-77
2023/12/26 04:27:09;;;;;;;13.00;1.35;;;8.60;99.90;;;;;;5000738;28;20517;-78
2023/12/26 04:29:35;;;;;;;15.50;2.03;;;8.70;99.90;;;;;;5005175;28;20073;-76
2023/12/26 04:32:00;;;;;;;15.65;2.13;;;8.60;99.90;;;;;;5016865;28;20060;-78
2023/12/26 04:34:26;;;;;;;12.40;1.80;;;8.60;99.90;;;;;;4990274;28;20046;-76
2023/12/26 04:36:53;;;;;;;15.98;2.00;;;8.60;99.90;;;;;;5005363;28;20497;-79
2023/12/26 04:39:18;;;;;;;15.80;1.90;;;8.50;99.90;;;;;;5010731;28;20085;-77
2023/12/26 04:41:47;;;;;;;9.45;1.63;;;8.50;99.90;;;;;;4999247;28;20212;-78
2023/12/26 04:44:13;;;;;;;12.52;2.28;;;8.50;99.90;;;;;;5007193;28;20049;-77
2023/12/26 04:46:38;;;;;;;14.75;2.40;;;8.40;99.90;;;;;;5009349;28;20409;-78
2023/12/26 04:49:04;;;;;;;11.77;1.75;;;8.40;99.90;;;;;;5010789;28;20045;-76
2023/12/26 04:51:30;;;;;;;11.45;2.20;;;8.40;99.90;;;;;;5006503;28;20979;-78
2023/12/26 04:53:56;;;;;;;12.88;2.67;;;8.30;99.90;;;;;;5008967;28;20050;-77
2023/12/26 04:56:22;;;;;;;10.07;1.65;;;8.40;99.90;;;;;;5008142;28;20046;-78
2023/12/26 04:58:49;;;;;;;15.50;2.95;;;8.30;99.90;;;;;;5007903;28;20121;-77
2023/12/26 05:01:16;;;;;;;12.38;1.67;;;8.30;99.90;;;;;;5003491;28;20053;-78
2023/12/26 05:03:43;;;;;;;14.02;2.33;;;8.30;99.90;;;;;;5002889;28;20108;-78
2023/12/26 05:06:09;;;;;;;13.77;1.65;;;8.30;99.90;;;;;;5011263;28;20050;-77
2023/12/26 05:08:38;;;;;;;9.35;1.40;;;8.30;99.90;;;;;;5009940;28;20109;-76
2023/12/26 05:11:04;;;;;;;15.80;3.15;;;8.30;99.90;;;;;;5010871;28;20042;-77
2023/12/26 05:13:29;;;;;;;11.45;1.77;;;8.20;99.90;;;;;;5009212;28;20077;-77
2023/12/26 05:15:55;;;;;;;9.18;2.13;;;8.20;99.90;;;;;;5008593;28;20088;-78
2023/12/26 05:18:20;;;;;;;12.02;1.67;;;8.20;99.90;;;;;;5002032;28;20813;-77
2023/12/26 05:20:46;;;;;;;9.48;2.67;;;8.20;99.90;;;;;;5007341;28;20064;-78
2023/12/26 05:23:12;;;;;;;14.82;2.38;;;8.20;99.90;;;;;;5010871;28;20124;-76
2023/12/26 05:25:38;;;;;;;14.70;1.80;;;8.20;99.90;;;;;;5006317;28;20388;-77
2023/12/26 05:28:04;;;;;;;17.77;2.53;;;8.20;99.90;;;;;;5009468;28;20064;-77
2023/12/26 05:30:29;;;;;;;13.23;1.85;;;8.20;99.90;;;;;;5002280;28;20395;-78
2023/12/26 05:32:55;;;;;;;12.68;1.80;;;8.20;99.90;;;;;;5014243;28;20224;-78
2023/12/26 05:35:20;;;;;;;9.82;1.58;;;8.30;99.90;;;;;;5017970;28;20464;-77
2023/12/26 05:37:46;;;;;;;11.57;2.10;;;8.20;99.90;;;;;;5010100;28;20103;-79
2023/12/26 05:40:12;;;;;;;6.55;1.67;;;8.30;99.90;;;;;;5009448;28;20490;-78
2023/12/26 05:42:38;;;;;;;11.93;2.00;;;8.30;99.90;;;;;;5005364;28;20081;-76
2023/12/26 05:45:03;;;;;;;10.88;2.03;;;8.30;99.90;;;;;;5007428;28;20049;-79
2023/12/26 05:47:29;;;;;;;8.82;2.00;;;8.30;99.90;;;;;;5009410;28;20417;-77
2023/12/26 05:49:58;;;;;;;12.40;2.30;;;8.50;99.90;;;;;;5008672;28;20441;-78
2023/12/26 05:52:25;;;;;;;9.60;1.63;;;8.40;99.90;;;;;;5006737;28;20050;-76
2023/12/26 05:54:51;;;;;;;12.55;1.70;;;8.30;99.90;;;;;;4992773;28;20046;-77
2023/12/26 05:57:16;;;;;;;16.13;2.25;;;8.30;99.90;;;;;;5020892;28;20428;-77
2023/12/26 05:59:42;;;;;;;16.92;1.90;;;8.30;99.90;;;;;;5014155;28;20050;-78
2023/12/26 06:02:08;;;;;;;10.48;1.52;;;8.40;99.90;;;;;;5013898;28;20125;-77
2023/12/26 06:04:33;;;;;;;13.05;1.90;;;8.40;99.90;;;;;;5012850;28;20490;-77
2023/12/26 06:06:59;;;;;;;10.75;1.92;;;8.40;99.90;;;;;;5011764;28;20508;-79
2023/12/26 06:09:26;;;;;;;11.80;1.77;;;8.40;99.90;;;;;;5012218;28;20052;-79
2023/12/26 06:11:52;;;;;;;9.35;1.75;;;8.40;99.90;;;;;;5006399;28;20050;-79
2023/12/26 06:14:18;;;;;;;10.25;2.25;;;8.40;99.90;;;;;;5004989;28;20673;-80
2023/12/26 06:16:43;;;;;;;8.23;1.52;;;8.40;99.90;;;;;;5012812;28;20049;-76
2023/12/26 06:19:09;;;;;;;11.45;1.55;;;8.40;99.90;;;;;;5000827;28;20046;-77
2023/12/26 06:21:36;;;;;;;10.48;1.98;;;8.40;99.90;;;;;;5010410;28;20041;-77
2023/12/26 06:24:02;;;;;;;11.45;1.30;;;8.60;99.90;;;;;;5014414;28;20058;-77
2023/12/26 06:26:28;;;;;;;13.05;1.50;;;8.40;99.90;;;;;;5009613;28;20085;-76
2023/12/26 06:28:53;;;;;;;11.40;1.90;;;8.50;99.90;;;;;;5009815;28;20089;-78
2023/12/26 06:31:19;;;;;;;11.45;1.70;;;8.40;99.90;;;;;;5011507;28;20133;-77
2023/12/26 06:33:45;;;;;;;11.82;2.13;;;8.60;99.90;;;;;;5000403;28;20490;-77
2023/12/26 06:36:11;;;;;;;10.30;1.92;;;8.50;99.90;;;;;;5013868;28;20052;-76
2023/12/26 06:38:36;;;;;;;16.05;2.17;;;8.50;99.90;;;;;;5009514;28;20042;-78
2023/12/26 06:41:02;;;;;;;9.68;1.55;;;8.50;99.90;;;;;;5003979;28;20041;-78
2023/12/26 06:43:28;;;;;;;13.63;2.03;;;8.40;99.90;;;;;;5012507;28;20173;-77
2023/12/26 06:45:55;;;;;;;10.55;1.42;;;8.40;99.90;;;;;;5012874;28;20118;-76
2023/12/26 06:48:20;;;;;;;12.05;2.03;;;8.40;99.90;;;;;;5012796;28;20076;-77
2023/12/26 06:50:46;;;;;;;12.65;1.83;;;8.40;99.90;;;;;;5012400;28;20066;-78
2023/12/26 06:53:12;;;;;;;11.57;1.92;;;8.30;99.90;;;;;;5011708;28;20050;-77
2023/12/26 06:55:37;;;;;;;15.40;2.30;;;8.40;99.90;;;;;;4999956;28;20545;-78
2023/12/26 06:58:04;;;;;;;10.50;1.48;;;8.30;99.90;;;;;;5018213;28;20091;-77
2023/12/26 07:00:29;;;;;;;11.95;1.70;;;8.40;99.90;;;;;;5002288;28;20053;-77
2023/12/26 07:02:55;;;;;;;16.30;2.92;;;8.40;99.90;;;;;;5003012;28;20053;-78
2023/12/26 07:05:21;;;;;;;12.38;2.13;;;8.40;99.90;;;;;;4997641;28;20054;-77
2023/12/26 07:07:48;;;;;;;17.52;2.15;;;8.40;99.90;;;;;;5012091;28;20056;-78
2023/12/26 07:10:14;;;;;;;14.18;2.00;;;8.40;99.90;;;;;;5005228;28;20050;-75
2023/12/26 07:12:40;;;;;;;10.07;1.58;;;8.40;99.90;;;;;;5003604;28;20116;-77
2023/12/26 07:15:06;;;;;;;16.48;1.50;;;8.40;99.90;;;;;;5011836;28;20426;-76
2023/12/26 07:17:32;;;;;;;9.38;1.50;;;8.40;99.90;;;;;;5007228;28;20049;-78
2023/12/26 07:19:58;;;;;;;16.05;2.97;;;8.30;99.90;;;;;;5012996;28;20042;-76
2023/12/26 07:22:24;;;;;;;16.67;1.83;;;8.40;99.90;;;;;;5012321;28;20053;-80
2023/12/26 07:24:50;;;;;;;13.23;1.67;;;8.50;99.90;;;;;;5012627;28;20156;-77
2023/12/26 07:27:15;;;;;;;14.05;1.88;;;8.40;99.90;;;;;;5005288;28;20494;-78
2023/12/26 07:29:41;;;;;;;15.52;2.42;;;8.50;99.90;;;;;;5018862;28;20516;-79
2023/12/26 07:32:07;;;;;;;9.70;2.03;;;8.40;99.90;;;;;;5009522;28;20520;-77
2023/12/26 07:34:32;;;;;;;14.52;2.13;;;8.40;99.90;;;;;;5012477;28;20052;-77
2023/12/26 07:36:58;;;;;;;17.60;2.50;;;8.40;99.90;;;;;;5010587;28;20049;-77
2023/12/26 07:39:23;;;;;;;20.42;2.53;;;8.50;99.90;;;;;;5010593;28;20049;-76
2023/12/26 07:41:49;;;;;;;11.60;1.70;;;8.40;99.90;;;;;;5010329;28;20037;-76
2023/12/26 07:44:15;;;;;;;10.23;1.70;;;8.40;99.90;;;;;;5010940;28;20168;-77
2023/12/26 07:46:41;;;;;;;20.27;2.35;;;8.40;99.90;;;;;;5010259;28;20461;-77
2023/12/26 07:49:06;;;;;;;17.30;3.25;;;8.40;99.90;;;;;;5010888;28;20042;-77
2023/12/26 07:51:33;;;;;;;12.63;1.83;;;8.40;99.90;;;;;;5009226;28;20034;-77
2023/12/26 07:54:00;;;;;;;13.05;2.10;;;8.40;99.90;;;;;;5010357;28;20050;-77
2023/12/26 07:56:26;;;;;;;15.00;2.05;;;8.40;99.90;;;;;;5012559;28;20054;-77
2023/12/26 07:58:52;;;;;;;9.00;2.20;;;8.40;99.90;;;;;;5013800;28;20572;-78
2023/12/26 08:01:18;;;;;;;18.35;2.28;;;8.40;99.90;;;;;;5001097;28;20054;-76
2023/12/26 08:03:44;;;;;;;10.88;1.98;;;8.40;99.90;;;;;;4998456;28;20050;-78
2023/12/26 08:06:10;;;;;;;19.92;2.78;;;8.40;99.90;;;;;;4999605;28;20134;-77
2023/12/26 08:08:36;;;;;;;13.27;2.22;;;8.50;99.90;;;;;;5013005;28;20129;-80
2023/12/26 08:11:01;;;;;;;20.77;2.20;;;8.40;99.90;;;;;;5011822;28;20520;-80
2023/12/26 08:13:27;;;;;;;14.95;2.28;;;8.40;99.90;;;;;;5010969;28;20785;-78
2023/12/26 08:15:52;;;;;;;10.40;1.80;;;8.40;99.90;;;;;;5000518;28;20049;-77
2023/12/26 08:18:18;;;;;;;10.68;1.73;;;8.40;99.90;;;;;;5012537;28;20425;-78
2023/12/26 08:20:44;;;;;;;12.70;1.88;;;8.40;99.90;;;;;;5009005;28;20049;-78
2023/12/26 08:23:09;;;;;;;11.05;1.55;;;8.50;99.90;;;;;;4983043;28;20046;-78
2023/12/26 08:25:37;;;;;;;9.70;2.28;;;8.40;99.90;;;;;;5011368;28;20500;-78
2023/12/26 08:28:03;;;;;;;16.88;2.33;;;8.40;99.90;;;;;;5010577;28;20054;-78
2023/12/26 08:30:29;;;;;;;15.30;3.08;;;8.40;99.90;;;;;;5010091;28;20042;-78
2023/12/26 08:32:55;;;;;;;15.00;3.05;;;8.70;99.90;;;;;;4998659;28;20128;-78
2023/12/26 08:35:20;;;;;;;16.98;2.10;;;8.50;99.90;;;;;;4999341;28;20125;-77
2023/12/26 08:37:46;;;;;;;13.52;2.80;;;8.40;99.90;;;;;;5009134;28;20059;-77
2023/12/26 08:40:12;;;;;;;16.23;2.40;;;8.40;99.90;;;;;;5008913;28;20708;-77
2023/12/26 08:42:37;;;;;;;16.75;2.10;;;8.40;99.90;;;;;;5009937;28;20041;-77
2023/12/26 08:45:03;;;;;;;14.98;1.90;;;8.40;99.90;;;;;;5009816;28;20485;-76
2023/12/26 08:47:29;;;;;;;10.80;2.20;;;8.40;99.90;;;;;;5010123;28;20517;-76
2023/12/26 08:49:56;;;;;;;13.38;2.70;;;8.40;99.90;;;;;;5009407;28;20121;-77
2023/12/26 08:52:23;;;;;;;16.95;2.33;;;8.50;99.90;;;;;;5008269;28;20410;-77
2023/12/26 08:54:49;;;;;;;19.55;2.50;;;8.50;99.90;;;;;;5009214;28;20049;-77
2023/12/26 08:57:14;;;;;;;14.38;1.83;;;8.40;99.90;;;;;;5010264;28;20057;-77
2023/12/26 08:59:40;;;;;;;15.25;2.47;;;8.50;99.90;;;;;;4995227;28;20047;-80
2023/12/26 09:02:06;;;;;;;14.93;2.05;;;8.50;99.90;;;;;;5009680;28;20068;-78
2023/12/26 09:04:31;;;;;;;13.23;1.52;;;8.50;99.90;;;;;;5009664;28;20054;-78
2023/12/26 09:06:57;;;;;;;16.33;2.30;;;8.50;99.90;;;;;;5004611;28;20045;-77
2023/12/26 09:09:26;;;;;;;11.93;2.10;;;8.50;99.90;;;;;;5009097;28;20393;-77
2023/12/26 09:11:53;;;;;;;13.43;2.08;;;8.50;99.90;;;;;;5008358;28;20524;-77
2023/12/26 09:14:19;;;;;;;16.75;2.38;;;8.50;99.90;;;;;;5009942;28;20120;-76
2023/12/26 09:16:44;;;;;;;17.67;2.70;;;8.50;99.90;;;;;;5006994;28;20563;-77
2023/12/26 09:19:11;;;;;;;11.30;2.05;;;8.50;99.90;;;;;;5004780;28;20125;-78
2023/12/26 09:21:37;;;;;;;14.38;2.72;;;8.50;99.90;;;;;;5001441;28;20171;-76
2023/12/26 09:24:03;;;;;;;15.85;2.28;;;8.50;99.90;;;;;;4987333;28;20182;-78
2023/12/26 09:26:29;;;;;;;9.18;2.13;;;8.50;99.90;;;;;;5000527;28;20054;-78
2023/12/26 09:28:55;;;;;;;15.05;1.77;;;8.50;99.90;;;;;;5007894;28;20054;-79
2023/12/26 09:31:21;;;;;;;8.00;1.88;;;8.50;99.90;;;;;;5006189;28;20048;-78
2023/12/26 09:33:47;;;;;;;13.20;1.90;;;8.50;99.90;;;;;;5005082;28;20069;-80
2023/12/26 09:36:12;;;;;;;12.27;2.60;;;8.50;99.90;;;;;;5007800;28;20111;-79
2023/12/26 09:38:40;;;;;;;14.38;2.42;;;8.60;99.90;;;;;;5008031;28;20117;-79
2023/12/26 09:41:06;;;;;;;12.13;2.13;;;8.60;99.90;;;;;;4992369;28;20049;-78
2023/12/26 09:43:31;;;;;;;11.77;1.77;;;8.60;99.90;;;;;;5008169;28;20061;-80
2023/12/26 09:45:57;;;;;;;18.15;2.10;;;8.60;99.90;;;;;;5008699;28;20042;-79
2023/12/26 09:48:24;;;;;;;12.60;2.47;;;8.60;99.90;;;;;;5007117;28;20034;-79
2023/12/26 09:50:53;;;;;;;18.13;2.17;;;8.60;99.90;;;;;;5007303;28;20413;-80
2023/12/26 09:53:22;;;;;;;18.40;2.47;;;8.60;99.90;;;;;;5008600;28;20067;-78
2023/12/26 09:55:50;;;;;;;19.50;2.50;;;8.60;99.90;;;;;;5008526;28;20042;-77
2023/12/26 09:58:17;;;;;;;13.85;2.78;;;8.60;99.90;;;;;;5007848;28;20478;-79
2023/12/26 10:00:44;;;;;;;17.65;2.35;;;8.60;99.90;;;;;;5003914;28;20395;-78
2023/12/26 10:03:10;;;;;;;13.23;2.15;;;8.60;99.90;;;;;;5005057;28;20187;-81
2023/12/26 10:05:36;;;;;;;15.93;2.78;;;8.60;99.90;;;;;;5006161;28;20109;-80
2023/12/26 10:08:02;;;;;;;16.73;2.10;;;8.60;99.90;;;;;;4999444;28;20050;-80
2023/12/26 10:10:28;;;;;;;10.90;2.22;;;8.70;99.90;;;;;;5007472;28;20435;-80
2023/12/26 10:12:53;;;;;;;19.00;2.63;;;8.70;99.90;;;;;;5007118;28;20042;-79
2023/12/26 10:15:20;;;;;;;16.77;2.72;;;8.90;99.90;;;;;;4999539;28;20121;-80
2023/12/26 10:17:45;;;;;;;18.55;2.78;;;9.00;99.90;;;;;;4991504;28;20042;-80
2023/12/26 10:20:15;;;;;;;12.73;2.05;;;9.00;99.90;;;;;;4991707;28;20057;-83
2023/12/26 10:22:45;;;;;;;12.82;2.30;;;8.90;99.90;;;;;;5000514;28;20042;-81
2023/12/26 10:25:14;;;;;;;13.48;2.60;;;8.80;99.90;;;;;;5011253;28;20460;-80
2023/12/26 10:27:40;;;;;;;14.73;2.17;;;8.90;99.90;;;;;;5003389;28;20092;-81
2023/12/26 10:30:06;;;;;;;9.77;1.90;;;8.80;99.90;;;;;;4999604;28;20421;-80
2023/12/26 10:32:32;;;;;;;15.32;2.08;;;8.80;99.90;;;;;;5010580;28;20062;-78
2023/12/26 10:35:15;;;;;;;18.08;2.55;;;8.80;99.90;;;;;;5010745;28;20050;-79
2023/12/26 10:37:41;;;;;;;15.85;2.67;;;8.90;99.90;;;;;;5000634;28;20402;-80
2023/12/26 10:40:08;;;;;;;18.00;2.78;;;8.90;99.90;;;;;;5007279;28;20065;-78
2023/12/26 10:42:36;;;;;;;10.95;2.13;;;8.90;99.90;;;;;;5014540;28;20041;-80
2023/12/26 10:45:05;;;;;;;11.45;1.80;;;9.10;99.90;;;;;;5011588;28;20058;-86
2023/12/26 10:47:31;;;;;;;16.08;2.60;;;8.90;99.90;;;;;;5011823;28;20061;-80
2023/12/26 10:50:08;;;;;;;12.43;2.03;;;8.90;99.90;;;;;;5011180;28;20057;-84
2023/12/26 10:52:40;;;;;;;19.40;2.70;;;8.80;99.90;;;;;;5011279;28;20054;-85
2023/12/26 10:55:18;;;;;;;14.23;2.60;;;8.90;99.90;;;;;;5009167;28;20371;-90
2023/12/26 10:57:46;;;;;;;14.00;1.90;;;8.80;99.90;;;;;;5008606;28;20056;-87
2023/12/26 11:00:12;;;;;;;16.73;2.45;;;8.80;99.90;;;;;;5013874;28;20100;-93
2023/12/26 11:02:41;;;;;;;11.45;2.33;;;8.90;99.90;;;;;;5014925;28;20110;-87
2023/12/26 11:05:06;;;;;;;18.95;3.17;;;9.20;99.90;;;;;;5014620;28;20073;-90
2023/12/26 11:07:33;;;;;;;17.95;2.58;;;9.00;99.90;;;;;;5015213;28;20084;-89
2023/12/26 11:09:58;;;;;;;17.20;2.40;;;9.00;99.90;;;;;;5014350;28;20049;-87
2023/12/26 11:12:25;;;;;;;13.45;3.03;;;9.10;99.90;;;;;;5013027;28;20038;-88
2023/12/26 11:14:50;;;;;;;20.30;3.10;;;9.10;99.90;;;;;;5014698;28;20410;-90
2023/12/26 11:17:16;;;;;;;19.35;2.97;;;9.10;99.90;;;;;;5013107;28;20061;-87
2023/12/26 11:19:42;;;;;;;13.68;3.10;;;9.00;99.90;;;;;;5013753;28;20045;-89
2023/12/26 11:22:09;;;;;;;13.30;2.65;;;9.10;99.90;;;;;;5009295;28;20041;-86
2023/12/26 11:24:34;;;;;;;11.45;2.17;;;9.00;99.90;;;;;;5012741;28;20695;-90
2023/12/26 11:27:00;;;;;;;18.50;3.25;;;9.00;99.90;;;;;;5013023;28;20057;-90
2023/12/26 11:29:28;;;;;;;15.10;2.30;;;9.00;99.90;;;;;;5015412;28;20478;-89
2023/12/26 11:31:55;;;;;;;16.50;2.53;;;9.00;99.90;;;;;;5005071;28;20091;-93
2023/12/26 11:34:22;;;;;;;16.85;3.15;;;9.10;99.90;;;;;;5013565;28;20053;-90
2023/12/26 11:36:48;;;;;;;17.65;3.00;;;9.00;99.90;;;;;;5013474;28;20045;-91
2023/12/26 11:39:17;;;;;;;12.23;2.40;;;9.00;99.90;;;;;;4994954;28;20092;-90
2023/12/26 11:41:43;;;;;;;18.15;2.42;;;9.00;99.90;;;;;;5011661;28;20053;-87
2023/12/26 11:44:10;;;;;;;17.88;2.42;;;9.00;99.90;;;;;;5008484;28;20121;-87
2023/12/26 11:46:36;;;;;;;14.10;2.28;;;9.10;99.90;;;;;;5010907;28;20040;-88
2023/12/26 11:49:02;;;;;;;16.27;2.35;;;9.50;99.90;;;;;;5013038;28;20350;-89
2023/12/26 11:51:28;;;;;;;17.70;3.42;;;9.00;99.90;;;;;;5001482;28;20124;-86
2023/12/26 11:53:53;;;;;;;15.00;1.95;;;8.90;99.90;;;;;;4997084;28;20046;-90
2023/12/26 11:56:19;;;;;;;15.20;2.88;;;8.90;99.90;;;;;;4999783;28;20049;-91
2023/12/26 11:58:45;;;;;;;20.05;2.92;;;9.00;99.90;;;;;;5014077;28;20157;-93
2023/12/26 12:01:10;;;;;;;17.40;3.05;;;9.30;99.90;;;;;;5011439;28;20776;-91
2023/12/26 12:03:36;;;;;;;16.42;2.67;;;9.00;99.90;;;;;;5008000;28;20537;-90
2023/12/26 12:06:15;;;;;;;22.98;3.30;;;8.90;99.90;;;;;;5008773;28;20516;-89
2023/12/26 12:09:07;;;;;;;24.92;3.53;;;9.00;99.90;;;;;;5004047;28;20048;-91
2023/12/26 12:11:33;;;;;;;19.65;2.60;;;8.90;99.90;;;;;;5001507;28;20054;-88
2023/12/26 12:13:58;;;;;;;15.05;2.78;;;8.90;99.90;;;;;;5011288;28;20091;-88
2023/12/26 12:16:24;;;;;;;17.13;2.60;;;8.90;99.90;;;;;;5008877;28;20052;-87
2023/12/26 12:19:02;;;;;;;14.25;2.72;;;9.00;99.90;;;;;;5009065;28;20092;-83
2023/12/26 12:21:38;;;;;;;19.63;2.67;;;8.90;99.90;;;;;;5008215;28;20029;-86
2023/12/26 12:24:04;;;;;;;17.83;2.60;;;8.90;99.90;;;;;;5009892;28;20037;-81
2023/12/26 12:27:18;;;;;;;12.77;2.38;;;8.90;99.90;;;;;;5013744;28;20052;-88
2023/12/26 12:30:01;;;;;;;18.23;2.45;;;8.90;99.90;;;;;;5000425;28;20470;-88
2023/12/26 12:32:34;;;;;;;10.70;2.00;;;9.00;99.90;;;;;;5009484;28;20052;-86
2023/12/26 12:35:13;;;;;;;14.85;2.00;;;8.90;99.90;;;;;;5016966;28;20401;-86
2023/12/26 12:37:38;;;;;;;16.45;2.22;;;9.00;99.90;;;;;;5013735;28;20046;-89
2023/12/26 12:40:06;;;;;;;12.65;2.25;;;9.00;99.90;;;;;;5012622;28;20061;-89
2023/12/26 12:42:36;;;;;;;15.18;2.10;;;9.00;99.90;;;;;;5012565;28;20083;-91
2023/12/26 12:45:06;;;;;;;11.63;1.92;;;9.00;99.90;;;;;;5012085;28;20089;-88
2023/12/26 12:47:32;;;;;;;13.43;2.15;;;9.00;99.90;;;;;;5008573;28;20050;-90